createdAt,value
2023-02-15T00:00:03.927Z,1030.649
2023-02-15T00:05:06.705Z,1030.593
2023-02-15T00:10:03.983Z,1030.534
2023-02-15T00:15:03.775Z,1030.441
2023-02-15T00:20:05.288Z,1030.39
2023-02-15T00:25:04.036Z,1030.34
2023-02-15T00:30:03.888Z,1030.316
2023-02-15T00:35:03.635Z,1030.261
2023-02-15T00:40:03.832Z,1030.175
2023-02-15T00:45:03.708Z,1030.094
2023-02-15T00:50:06.510Z,1030.069
2023-02-15T00:55:04.831Z,1030.011
2023-02-15T01:00:03.589Z,1030.03
2023-02-15T01:05:03.765Z,1030.066
2023-02-15T01:10:05.281Z,1030.057
2023-02-15T01:15:12.703Z,1030.062
2023-02-15T01:20:05.940Z,1030.022
2023-02-15T01:25:06.857Z,1029.922
2023-02-15T01:30:07.904Z,1029.846
2023-02-15T01:35:03.788Z,1029.735
2023-02-15T01:40:04.518Z,1029.698
2023-02-15T01:45:04.820Z,1029.697
2023-02-15T01:50:07.202Z,1029.624
2023-02-15T01:55:05.468Z,1029.599
2023-02-15T02:00:05.550Z,1029.63
2023-02-15T02:05:07.755Z,1029.585
2023-02-15T02:10:04.499Z,1029.561
2023-02-15T02:15:04.045Z,1029.512
2023-02-15T02:20:21.572Z,1029.518
2023-02-15T02:25:29.898Z,1029.466
2023-02-15T02:30:17.629Z,1029.473
2023-02-15T02:35:06.940Z,1029.348
2023-02-15T02:40:09.107Z,1029.261
2023-02-15T02:45:06.969Z,1029.256
2023-02-15T02:50:10.065Z,1029.167
2023-02-15T02:55:04.029Z,1029.021
2023-02-15T03:00:07.470Z,1028.932
2023-02-15T03:05:07.578Z,1028.883
2023-02-15T03:10:05.525Z,1028.795
2023-02-15T03:15:06.821Z,1028.737
2023-02-15T03:20:07.144Z,1028.754
2023-02-15T03:25:10.156Z,1028.779
2023-02-15T03:30:04.491Z,1028.726
2023-02-15T03:35:06.681Z,1028.729
2023-02-15T03:40:21.538Z,1028.727
2023-02-15T03:45:09.034Z,1028.628
2023-02-15T03:50:16.368Z,1028.565
2023-02-15T03:55:03.706Z,1028.519
2023-02-15T04:00:15.763Z,1028.429
2023-02-15T04:05:10.607Z,1028.391
2023-02-15T04:10:18.023Z,1028.346
2023-02-15T04:15:17.706Z,1028.298
2023-02-15T04:20:14.985Z,1028.266
2023-02-15T04:25:15.753Z,1028.239
2023-02-15T04:30:09.477Z,1028.204
2023-02-15T04:35:07.926Z,1028.105
2023-02-15T04:40:04.953Z,1028.088
2023-02-15T04:45:07.447Z,1028.029
2023-02-15T04:50:03.951Z,1027.999
2023-02-15T04:55:17.324Z,1027.959
2023-02-15T05:00:10.895Z,1028
2023-02-15T05:05:07.064Z,1028.051
2023-02-15T05:17:37.464Z,1028.041
2023-02-15T05:22:33.560Z,1027.991
2023-02-15T05:27:47.409Z,1027.966
2023-02-15T05:32:33.589Z,1027.938
2023-02-15T05:37:39.847Z,1027.917
2023-02-15T05:42:38.084Z,1027.897
2023-02-15T05:47:45.013Z,1027.898
2023-02-15T05:52:43.567Z,1027.914
2023-02-15T05:57:33.979Z,1027.88
2023-02-15T06:02:33.543Z,1027.858
2023-02-15T06:07:33.667Z,1027.775
2023-02-15T06:12:35.019Z,1027.703
2023-02-15T06:17:35.097Z,1027.646
2023-02-15T06:22:33.492Z,1027.701
2023-02-15T06:27:38.938Z,1027.657
2023-02-15T06:32:37.932Z,1027.691
2023-02-15T06:37:33.561Z,1027.705
2023-02-15T06:42:37.956Z,1027.72
2023-02-15T06:47:33.670Z,1027.755
2023-02-15T06:52:34.633Z,1027.735
2023-02-15T06:57:34.012Z,1027.707
2023-02-15T07:02:36.054Z,1027.669
2023-02-15T07:07:33.555Z,1027.625
2023-02-15T07:12:47.934Z,1027.593
2023-02-15T07:17:36.079Z,1027.622
2023-02-15T07:22:38.819Z,1027.644
2023-02-15T07:27:33.475Z,1027.563
2023-02-15T07:32:51.980Z,1027.495
2023-02-15T07:37:33.710Z,1027.473
2023-02-15T07:42:35.184Z,1027.371
2023-02-15T07:47:40.349Z,1027.335
2023-02-15T07:52:40.041Z,1027.323
2023-02-15T07:57:34.040Z,1027.185
2023-02-15T08:02:34.921Z,1027.201
2023-02-15T08:07:54.251Z,1027.181
2023-02-15T08:12:34.644Z,1027.077
2023-02-15T08:17:34.892Z,1026.989
2023-02-15T08:22:33.470Z,1026.983
2023-02-15T08:27:40.052Z,1026.929
2023-02-15T08:32:35.354Z,1026.939
2023-02-15T08:37:35.479Z,1027.038
2023-02-15T08:42:33.600Z,1027.028
2023-02-15T08:47:36.523Z,1026.98
2023-02-15T08:52:33.532Z,1026.978
2023-02-15T08:57:34.629Z,1026.907
2023-02-15T09:02:34.665Z,1026.939
2023-02-15T09:07:34.926Z,1026.863
2023-02-15T09:12:33.556Z,1026.878
2023-02-15T09:17:33.940Z,1026.771
2023-02-15T09:22:34.308Z,1026.706
2023-02-15T09:27:34.141Z,1026.74
2023-02-15T09:32:39.168Z,1026.711
2023-02-15T09:37:42.676Z,1026.843
2023-02-15T09:42:48.504Z,1026.824
2023-02-15T09:47:46.481Z,1026.767
2023-02-15T09:52:49.081Z,1026.711
2023-02-15T09:57:39.229Z,1026.684
2023-02-15T10:02:43.134Z,1026.741
2023-02-15T10:07:50.416Z,1026.845
2023-02-15T10:12:42.070Z,1026.836
2023-02-15T10:17:39.938Z,1026.761
2023-02-15T10:22:48.796Z,1026.732
2023-02-15T10:27:41.153Z,1026.74
2023-02-15T10:32:36.543Z,1026.609
2023-02-15T10:37:44.813Z,1026.542
2023-02-15T10:42:38.539Z,1026.527
2023-02-15T10:47:46.987Z,1026.426
2023-02-15T10:52:41.406Z,1026.439
2023-02-15T10:57:38.215Z,1026.371
2023-02-15T11:02:40.467Z,1026.306
2023-02-15T11:07:39.133Z,1026.187
2023-02-15T11:12:38.242Z,1026.136
2023-02-15T11:17:40.960Z,1025.979
2023-02-15T11:22:40.768Z,1025.891
2023-02-15T11:27:35.378Z,1025.887
2023-02-15T11:32:35.411Z,1025.944
2023-02-15T11:37:36.049Z,1025.819
2023-02-15T11:42:47.809Z,1025.755
2023-02-15T11:47:33.860Z,1025.753
2023-02-15T11:52:34.902Z,1025.726
2023-02-15T11:57:38.679Z,1025.74
2023-02-15T12:02:37.231Z,1025.584
2023-02-15T12:07:37.278Z,1025.508
2023-02-15T12:12:34.661Z,1025.508
2023-02-15T12:17:36.050Z,1025.46
2023-02-15T12:22:40.275Z,1025.368
2023-02-15T12:27:36.036Z,1025.224
2023-02-15T12:32:35.078Z,1025.287
2023-02-15T12:37:36.638Z,1025.389
2023-02-15T12:42:46.134Z,1025.356
2023-02-15T12:47:44.346Z,1025.319
2023-02-15T12:52:33.329Z,1025.318
2023-02-15T12:57:34.636Z,1025.397
2023-02-15T13:02:41.332Z,1025.327
2023-02-15T13:07:36.125Z,1025.254
2023-02-15T13:12:40.128Z,1025.236
2023-02-15T13:17:39.421Z,1025.23
2023-02-15T13:22:40.181Z,1025.205
2023-02-15T13:27:36.836Z,1025.108
2023-02-15T13:32:37.012Z,1024.982
2023-02-15T13:37:43.087Z,1024.914
2023-02-15T13:42:37.500Z,1024.877
2023-02-15T13:47:38.984Z,1024.875
2023-02-15T13:52:42.316Z,1024.775
2023-02-15T13:57:45.638Z,1024.772
2023-02-15T14:02:41.916Z,1024.743
2023-02-15T14:07:41.854Z,1024.671
2023-02-15T14:12:40.025Z,1024.699
2023-02-15T14:17:44.030Z,1024.657
2023-02-15T14:22:37.400Z,1024.651
2023-02-15T14:27:44.351Z,1024.584
2023-02-15T14:32:39.617Z,1024.678
2023-02-15T14:37:43.504Z,1024.732
2023-02-15T14:42:35.494Z,1024.677
2023-02-15T14:47:38.148Z,1024.604
2023-02-15T14:52:36.450Z,1024.527
2023-02-15T14:57:37.567Z,1024.555
2023-02-15T15:02:44.619Z,1024.507
2023-02-15T15:07:41.341Z,1024.428
2023-02-15T15:12:50.606Z,1024.507
2023-02-15T15:17:44.705Z,1024.357
2023-02-15T15:22:34.036Z,1024.343
2023-02-15T15:27:44.711Z,1024.36
2023-02-15T15:32:37.000Z,1024.311
2023-02-15T15:37:53.829Z,1024.28
2023-02-15T15:42:38.258Z,1024.177
2023-02-15T15:47:56.149Z,1024.125
2023-02-15T15:52:41.333Z,1024.094
2023-02-15T15:57:37.166Z,1024.091
2023-02-15T16:02:33.693Z,1024.095
2023-02-15T16:07:35.931Z,1024.032
2023-02-15T16:12:35.092Z,1024.003
2023-02-15T16:17:35.229Z,1024.027
2023-02-15T16:22:33.522Z,1023.999
2023-02-15T16:27:40.428Z,1023.984
2023-02-15T16:32:36.682Z,1024.035
2023-02-15T16:37:37.508Z,1024.05
2023-02-15T16:42:33.205Z,1024.085
2023-02-15T16:47:34.440Z,1024.115
2023-02-15T16:52:37.626Z,1024.028
2023-02-15T16:57:38.795Z,1024.063
2023-02-15T17:02:55.107Z,1024.22
2023-02-15T17:07:34.217Z,1024.309
2023-02-15T17:12:58.660Z,1024.34
2023-02-15T17:17:35.801Z,1024.413
2023-02-15T17:22:33.509Z,1024.426
2023-02-15T17:27:35.741Z,1024.379
2023-02-15T17:32:36.747Z,1024.354
2023-02-15T17:37:36.378Z,1024.369
2023-02-15T17:42:37.647Z,1024.344
2023-02-15T17:47:34.765Z,1024.424
2023-02-15T17:52:34.290Z,1024.486
2023-02-15T17:57:39.018Z,1024.471
2023-02-15T18:02:49.685Z,1024.524
2023-02-15T18:07:44.622Z,1024.544
2023-02-15T18:12:34.722Z,1024.532
2023-02-15T18:17:38.530Z,1024.524
2023-02-15T18:22:35.299Z,1024.503
2023-02-15T18:27:35.059Z,1024.546
2023-02-15T18:32:36.383Z,1024.516
2023-02-15T18:37:38.042Z,1024.472
2023-02-15T18:42:37.058Z,1024.517
2023-02-15T18:47:46.600Z,1024.451
2023-02-15T18:52:40.758Z,1024.467
2023-02-15T18:57:36.345Z,1024.426
2023-02-15T19:02:37.495Z,1024.382
2023-02-15T19:07:34.556Z,1024.353
2023-02-15T19:12:34.689Z,1024.358
2023-02-15T19:17:33.544Z,1024.423
2023-02-15T19:22:48.222Z,1024.342
2023-02-15T19:27:34.863Z,1024.318
2023-02-15T19:32:33.462Z,1024.316
2023-02-15T19:37:37.969Z,1024.29
2023-02-15T19:42:36.511Z,1024.289
2023-02-15T19:47:36.243Z,1024.29
2023-02-15T19:52:38.332Z,1024.222
2023-02-15T19:57:35.648Z,1024.236
2023-02-15T20:02:36.391Z,1024.193
2023-02-15T20:07:33.392Z,1024.078
2023-02-15T20:12:35.819Z,1024.056
2023-02-15T20:17:33.330Z,1024.112
2023-02-15T20:22:36.091Z,1024.062
2023-02-15T20:27:34.873Z,1024.1
2023-02-15T20:32:33.339Z,1024.051
2023-02-15T20:37:38.336Z,1024.033
2023-02-15T20:42:33.489Z,1024.148
2023-02-15T20:47:33.543Z,1024.115
2023-02-15T20:52:33.441Z,1024.168
2023-02-15T20:57:34.504Z,1024.114
2023-02-15T21:02:33.525Z,1024.197
2023-02-15T21:07:33.413Z,1024.131
2023-02-15T21:12:33.455Z,1024.12
2023-02-15T21:17:33.342Z,1024.101
2023-02-15T21:22:33.248Z,1024.118
2023-02-15T21:27:33.457Z,1024.13
2023-02-15T21:32:33.407Z,1024.126
2023-02-15T21:37:36.416Z,1024.14
2023-02-15T21:42:47.401Z,1024.226
2023-02-15T21:48:02.653Z,1024.262
2023-02-15T21:52:35.824Z,1024.199
2023-02-15T21:57:33.160Z,1024.174
2023-02-15T22:02:34.756Z,1024.224
2023-02-15T22:07:33.172Z,1024.114
2023-02-15T22:12:34.457Z,1024.105
2023-02-15T22:17:34.156Z,1024.16
2023-02-15T22:22:36.163Z,1024.168
2023-02-15T22:27:33.866Z,1024.209
2023-02-15T22:32:33.244Z,1024.183
2023-02-15T22:37:33.484Z,1024.15
2023-02-15T22:42:33.500Z,1024.231
2023-02-15T22:47:34.254Z,1024.29
2023-02-15T22:52:33.274Z,1024.225
2023-02-15T22:57:37.623Z,1024.21
2023-02-15T23:02:33.081Z,1024.208
2023-02-15T23:07:33.638Z,1024.112
2023-02-15T23:12:45.282Z,1024.085
2023-02-15T23:17:33.173Z,1024.13
2023-02-15T23:22:33.236Z,1024.077
2023-02-15T23:27:44.615Z,1024.04
2023-02-15T23:32:33.614Z,1024.042
2023-02-15T23:37:36.171Z,1024.047
2023-02-15T23:42:34.435Z,1023.988
2023-02-15T23:47:45.202Z,1024
2023-02-15T23:52:33.177Z,1023.999
2023-02-15T23:57:33.214Z,1023.97
